Time;durP1;ratioP1;P1;durP2;ratioP2;P2;SDS_P1;SDS_P2;PMS_P1;PMS_P2;Temp;Humidity;BMP_temperature;BMP_pressure;BME280_temperature;BME280_humidity;BME280_pressure;Samples;Min_cycle;Max_cycle;Signal;HPM_P1;HPM_P2
2024/04/13 00:01:19;;;;;;;5.88;3.13;;;;;;;13.38;100.00;102010.94;8997200;26;20006;-76
2024/04/13 00:05:20;;;;;;;7.18;3.45;;;;;;;13.34;100.00;102009.56;9024670;26;20002;-76
2024/04/13 00:09:22;;;;;;;6.05;4.18;;;;;;;13.37;100.00;102015.47;8980804;26;20035;-76
2024/04/13 00:13:24;;;;;;;7.85;3.47;;;;;;;13.33;100.00;102013.25;8995738;26;20371;-76
2024/04/13 00:17:25;;;;;;;5.70;3.65;;;;;;;13.38;100.00;102014.47;9021418;26;20452;-76
2024/04/13 00:21:27;;;;;;;5.22;3.97;;;;;;;13.27;100.00;102007.53;9026403;26;20473;-76
2024/04/13 00:25:29;;;;;;;7.38;3.47;;;;;;;13.14;100.00;102009.81;9026061;26;20002;-76
2024/04/13 00:29:32;;;;;;;5.45;3.28;;;;;;;13.17;100.00;102000.56;8998475;26;20017;-76
2024/04/13 00:33:33;;;;;;;11.30;3.92;;;;;;;13.17;100.00;101996.00;8976439;26;20054;-76
2024/04/13 00:37:35;;;;;;;7.38;4.55;;;;;;;13.13;100.00;102000.03;8974301;26;20043;-76
2024/04/13 00:41:36;;;;;;;4.13;3.15;;;;;;;12.90;100.00;102001.66;9012990;26;20465;-76
2024/04/13 00:45:42;;;;;;;6.63;3.83;;;;;;;12.77;100.00;101998.56;9026023;26;20031;-76
2024/04/13 00:49:47;;;;;;;11.20;4.15;;;;;;;12.92;100.00;101986.19;9022923;26;20007;-76
2024/04/13 00:53:49;;;;;;;6.03;3.58;;;;;;;12.94;100.00;101981.50;8975887;26;20008;-76
2024/04/13 00:57:51;;;;;;;6.40;3.70;;;;;;;12.83;100.00;101966.47;8965530;26;20019;-76
2024/04/13 01:01:53;;;;;;;7.25;3.85;;;;;;;12.82;100.00;101980.94;9002890;26;20023;-76
2024/04/13 01:05:58;;;;;;;6.22;3.35;;;;;;;12.91;100.00;101977.28;9021567;26;20023;-76
2024/04/13 01:10:00;;;;;;;8.20;3.78;;;;;;;12.83;100.00;101985.31;9025467;26;20474;-76
2024/04/13 01:14:02;;;;;;;6.25;3.70;;;;;;;12.87;100.00;101991.22;9007254;26;20442;-76
2024/04/13 01:18:05;;;;;;;4.35;3.45;;;;;;;12.82;100.00;101980.94;9021607;26;20145;-76
2024/04/13 01:22:07;;;;;;;5.22;3.90;;;;;;;12.73;100.00;101978.38;9024953;26;20035;-76
2024/04/13 01:26:09;;;;;;;5.20;3.90;;;;;;;12.81;100.00;101984.63;9023220;26;20027;-76
2024/04/13 01:30:14;;;;;;;5.05;3.78;;;;;;;12.84;100.00;101988.84;9018788;26;20010;-77
2024/04/13 01:34:16;;;;;;;6.20;3.83;;;;;;;12.72;100.00;101982.06;8971208;26;20008;-76
2024/04/13 01:38:17;;;;;;;5.30;3.80;;;;;;;12.68;100.00;101979.72;8964520;26;20455;-76
2024/04/13 01:42:20;;;;;;;7.15;4.32;;;;;;;12.62;100.00;101976.81;9007010;26;20003;-76
2024/04/13 01:46:21;;;;;;;5.25;4.00;;;;;;;12.68;100.00;101974.34;9025095;26;20450;-77
2024/04/13 01:50:23;;;;;;;6.88;4.45;;;;;;;12.67;100.00;101979.88;9021918;26;20402;-77
2024/04/13 01:54:25;;;;;;;6.40;4.20;;;;;;;12.76;100.00;101983.44;9027409;26;20007;-77
2024/04/13 01:58:26;;;;;;;7.47;5.03;;;;;;;12.83;100.00;101997.91;9009729;26;20041;-76
2024/04/13 02:02:28;;;;;;;6.22;4.22;;;;;;;12.54;100.00;101992.91;8987275;26;20241;-76
2024/04/13 02:06:30;;;;;;;5.43;3.95;;;;;;;12.47;100.00;101992.69;8961137;26;20008;-76
2024/04/13 02:10:31;;;;;;;6.55;4.38;;;;;;;12.37;100.00;101991.97;8977931;26;20024;-77
2024/04/13 02:14:33;;;;;;;6.95;3.80;;;;;;;12.25;100.00;102001.28;8992255;26;20013;-76
2024/04/13 02:18:37;;;;;;;7.88;4.35;;;;;;;12.38;100.00;102005.25;9023717;26;20007;-77
2024/04/13 02:22:39;;;;;;;6.53;4.20;;;;;;;12.32;100.00;101997.84;8990181;26;20450;-77
2024/04/13 02:26:40;;;;;;;11.82;3.85;;;;;;;12.12;100.00;102007.06;8990129;26;20003;-77
2024/04/13 02:30:42;;;;;;;7.35;4.78;;;;;;;12.22;100.00;101997.06;9009679;26;20003;-76
2024/04/13 02:34:44;;;;;;;5.88;4.30;;;;;;;12.25;100.00;101999.44;9019872;26;20076;-77
2024/04/13 02:38:48;;;;;;;6.68;4.45;;;;;;;12.20;100.00;102004.47;9022093;26;20003;-76
2024/04/13 02:42:50;;;;;;;8.65;4.80;;;;;;;12.15;100.00;102009.47;8985426;26;20017;-76
2024/04/13 02:46:52;;;;;;;7.53;4.80;;;;;;;11.92;100.00;101998.34;8965973;26;20044;-76
2024/04/13 02:50:55;;;;;;;7.78;4.82;;;;;;;11.97;100.00;101997.88;8985861;26;20017;-77
2024/04/13 02:54:56;;;;;;;8.57;4.72;;;;;;;11.99;100.00;101994.06;9028893;26;20039;-77
2024/04/13 02:58:58;;;;;;;8.07;4.53;;;;;;;11.89;100.00;101995.16;9024156;26;20083;-77
2024/04/13 03:03:00;;;;;;;9.35;5.35;;;;;;;11.89;100.00;101985.25;9028398;26;20373;-77
2024/04/13 03:07:02;;;;;;;6.93;5.28;;;;;;;11.62;100.00;101975.41;8994495;26;19999;-76
2024/04/13 03:11:04;;;;;;;10.05;4.85;;;;;;;11.41;100.00;101978.41;9024544;26;20035;-77
2024/04/13 03:15:07;;;;;;;7.03;5.10;;;;;;;11.58;100.00;101973.19;8969061;26;20457;-77
2024/04/13 03:19:09;;;;;;;7.60;5.80;;;;;;;11.39;100.00;101975.03;8937913;26;20003;-76
2024/04/13 03:23:11;;;;;;;6.80;5.07;;;;;;;11.55;100.00;101968.97;9016859;26;20034;-77
2024/04/13 03:27:12;;;;;;;10.00;5.47;;;;;;;11.50;100.00;101960.53;9026026;26;20015;-76
2024/04/13 03:31:14;;;;;;;7.57;5.00;;;;;;;11.55;100.00;101973.50;8991910;26;20007;-76
2024/04/13 03:35:16;;;;;;;6.22;4.75;;;;;;;11.41;100.00;101967.66;9027636;26;20027;-77
2024/04/13 03:39:18;;;;;;;8.65;5.68;;;;;;;11.52;100.00;101973.81;8994598;26;20031;-77
2024/04/13 03:43:20;;;;;;;8.52;6.20;;;;;;;11.51;100.00;101977.50;9021705;26;20035;-76
2024/04/13 03:47:21;;;;;;;10.20;6.03;;;;;;;11.55;100.00;101973.50;9026949;26;20003;-77
2024/04/13 03:51:23;;;;;;;12.32;5.55;;;;;;;11.47;100.00;101968.91;9027330;26;20486;-76
2024/04/13 03:55:25;;;;;;;7.75;5.65;;;;;;;11.58;100.00;101965.13;8996131;26;20447;-76
2024/04/13 03:59:27;;;;;;;11.20;5.88;;;;;;;11.56;100.00;101972.50;9026916;26;20035;-77
2024/04/13 04:03:29;;;;;;;12.13;5.95;;;;;;;11.57;100.00;101969.66;8970207;26;20478;-76
2024/04/13 04:07:31;;;;;;;10.35;6.30;;;;;;;11.65;100.00;101971.59;8968471;26;20457;-76
2024/04/13 04:11:34;;;;;;;10.20;6.00;;;;;;;11.77;100.00;101968.50;8964408;26;20034;-77
2024/04/13 04:15:37;;;;;;;10.93;5.68;;;;;;;11.47;100.00;101976.97;9027811;26;19999;-76
2024/04/13 04:19:39;;;;;;;11.48;6.43;;;;;;;11.36;100.00;101966.44;9027355;26;20019;-77
2024/04/13 04:23:40;;;;;;;8.45;6.53;;;;;;;11.68;100.00;101974.81;9027636;26;19999;-77
2024/04/13 04:27:42;;;;;;;8.07;5.93;;;;;;;11.52;100.00;101976.50;9026860;26;20003;-78
2024/04/13 04:31:44;;;;;;;10.48;6.55;;;;;;;11.40;100.00;101971.34;9026642;26;20461;-77
2024/04/13 04:35:45;;;;;;;10.63;6.63;;;;;;;11.33;100.00;101974.81;9026516;26;20443;-77
2024/04/13 04:39:47;;;;;;;12.18;6.00;;;;;;;11.73;100.00;101966.28;9025659;26;19999;-76
2024/04/13 04:43:49;;;;;;;8.50;6.60;;;;;;;11.33;100.00;101977.50;9025814;26;20075;-77
2024/04/13 04:47:53;;;;;;;7.63;6.40;;;;;;;11.67;100.00;101972.28;9025905;26;20014;-76
2024/04/13 04:51:55;;;;;;;8.27;6.82;;;;;;;11.47;100.00;101968.91;9026551;26;20081;-76
2024/04/13 04:55:58;;;;;;;9.90;6.78;;;;;;;11.66;100.00;101970.59;9005602;26;20339;-77
2024/04/13 04:59:59;;;;;;;11.90;6.70;;;;;;;11.61;100.00;101973.72;9026310;26;19999;-77
2024/04/13 05:04:01;;;;;;;13.88;7.38;;;;;;;11.50;100.00;101973.97;8995238;26;20007;-77
2024/04/13 05:08:03;;;;;;;10.15;6.97;;;;;;;11.69;100.00;101976.50;9025587;26;20506;-77
2024/04/13 05:12:05;;;;;;;8.73;6.75;;;;;;;11.64;100.00;101986.00;9023595;26;20002;-77
2024/04/13 05:16:10;;;;;;;11.70;6.75;;;;;;;11.71;100.00;101981.69;8993935;26;20019;-77
2024/04/13 05:20:12;;;;;;;9.77;7.07;;;;;;;11.80;100.00;101980.78;9025175;26;19999;-77
2024/04/13 05:24:13;;;;;;;18.30;7.20;;;;;;;12.01;100.00;101986.69;9024606;26;20433;-76
2024/04/13 05:28:15;;;;;;;9.95;7.63;;;;;;;12.17;100.00;101990.50;9024776;26;19999;-76
2024/04/13 05:32:18;;;;;;;11.32;8.00;;;;;;;12.18;100.00;101997.56;9025230;26;20032;-76
2024/04/13 05:36:21;;;;;;;9.82;7.10;;;;;;;12.36;100.00;101983.06;8951535;26;20014;-76
2024/04/13 05:40:25;;;;;;;11.32;5.80;;;;;;;12.33;100.00;101986.06;8942076;26;20007;-77
2024/04/13 05:44:29;;;;;;;8.65;5.43;;;;;;;12.66;100.00;101981.69;9024327;26;20043;-77
2024/04/13 05:48:30;;;;;;;10.82;6.78;;;;;;;12.90;100.00;101991.72;8992673;26;20035;-77
2024/04/13 05:52:32;;;;;;;13.00;7.43;;;;;;;13.07;100.00;101979.19;9013971;26;20019;-76
2024/04/13 05:56:34;;;;;;;13.25;7.30;;;;;;;13.20;100.00;101989.53;8985349;26;20007;-79
2024/04/13 06:00:36;;;;;;;11.80;7.03;;;;;;;13.60;100.00;101998.69;8943799;26;20053;-77
2024/04/13 06:04:38;;;;;;;9.75;6.70;;;;;;;13.66;100.00;101998.84;9024511;26;20030;-75
2024/04/13 06:08:45;;;;;;;11.55;6.57;;;;;;;13.73;100.00;101994.50;9017971;26;20003;-76
2024/04/13 06:12:48;;;;;;;12.35;6.68;;;;;;;13.72;100.00;101986.56;9024498;26;19998;-77
2024/04/13 06:16:50;;;;;;;14.73;6.85;;;;;;;13.85;100.00;101976.97;8963550;26;20007;-77
2024/04/13 06:20:52;;;;;;;8.75;6.07;;;;;;;13.94;100.00;101991.28;9025102;26;20468;-76
2024/04/13 06:24:53;;;;;;;11.73;6.85;;;;;;;13.97;100.00;101993.63;9030445;26;20018;-76
2024/04/13 06:28:55;;;;;;;11.20;7.05;;;;;;;14.06;100.00;101989.09;9030487;26;20366;-77
2024/04/13 06:32:57;;;;;;;9.25;6.38;;;;;;;14.14;100.00;101981.84;9029180;26;20015;-76
2024/04/13 06:36:58;;;;;;;10.50;6.35;;;;;;;14.35;100.00;101992.06;8997683;26;20412;-76
2024/04/13 06:41:00;;;;;;;8.35;6.53;;;;;;;14.54;100.00;101987.34;9029838;26;20497;-77
2024/04/13 06:45:02;;;;;;;9.10;5.68;;;;;;;14.71;100.00;101984.41;9030028;26;20003;-76
2024/04/13 06:49:04;;;;;;;7.90;5.90;;;;;;;14.94;100.00;101978.25;9029757;26;20003;-77
2024/04/13 06:53:06;;;;;;;10.10;6.15;;;;;;;15.06;100.00;101974.97;9029694;26;20048;-76
2024/04/13 06:57:07;;;;;;;13.95;6.60;;;;;;;15.14;100.00;101960.63;9029544;26;20142;-76
2024/04/13 07:01:09;;;;;;;24.75;7.05;;;;;;;15.30;100.00;101955.13;9029594;26;20044;-76
2024/04/13 07:05:11;;;;;;;11.13;5.75;;;;;;;15.35;100.00;101952.72;9029602;26;20405;-75
2024/04/13 07:09:13;;;;;;;12.15;6.40;;;;;;;15.68;100.00;101953.34;9029597;26;19998;-76
2024/04/13 07:13:14;;;;;;;12.57;6.20;;;;;;;15.90;100.00;101964.28;9029589;26;20075;-77
2024/04/13 07:17:16;;;;;;;10.15;4.93;;;;;;;15.79;99.96;101962.00;9029212;26;20453;-77
2024/04/13 07:21:18;;;;;;;5.75;3.65;;;;;;;15.96;96.82;101956.28;9028633;26;20011;-77
2024/04/13 07:25:19;;;;;;;9.63;4.95;;;;;;;16.19;96.25;101945.44;9028889;26;20443;-78
2024/04/13 07:29:21;;;;;;;18.10;6.13;;;;;;;16.36;96.97;101945.25;8997451;26;20015;-75
2024/04/13 07:33:23;;;;;;;6.10;4.03;;;;;;;16.29;93.76;101945.97;9017004;26;19999;-77
2024/04/13 07:37:24;;;;;;;8.85;6.30;;;;;;;16.65;92.52;101942.53;9029999;26;20408;-77
2024/04/13 07:41:26;;;;;;;6.03;5.05;;;;;;;16.58;93.24;101933.50;8997968;26;20015;-78
2024/04/13 07:45:28;;;;;;;9.15;5.43;;;;;;;16.78;90.23;101923.78;9030493;26;20356;-78
2024/04/13 07:49:30;;;;;;;16.65;6.03;;;;;;;17.03;88.86;101928.88;9030528;26;20007;-77
2024/04/13 07:53:34;;;;;;;15.13;6.88;;;;;;;16.93;91.33;101917.50;9030536;26;20027;-76
2024/04/13 07:57:36;;;;;;;11.73;6.25;;;;;;;16.68;90.78;101931.38;9029140;26;20002;-77
2024/04/13 08:01:38;;;;;;;6.05;4.07;;;;;;;16.58;91.23;101926.22;9029353;26;20023;-76
2024/04/13 08:05:39;;;;;;;8.20;5.05;;;;;;;17.20;88.07;101927.63;9023972;26;20003;-77
2024/04/13 08:09:41;;;;;;;7.50;5.45;;;;;;;17.31;85.67;101927.09;9029719;26;20038;-77
2024/04/13 08:13:43;;;;;;;9.48;5.78;;;;;;;17.20;82.64;101937.63;9028281;26;20007;-76
2024/04/13 08:17:45;;;;;;;6.80;4.47;;;;;;;17.29;81.78;101929.16;8996873;26;20003;-77
2024/04/13 08:21:46;;;;;;;9.38;4.65;;;;;;;17.49;79.80;101915.81;9028303;26;20130;-76
2024/04/13 08:25:48;;;;;;;9.25;3.88;;;;;;;17.82;79.93;101921.53;9028151;26;20003;-77
2024/04/13 08:29:50;;;;;;;6.15;3.33;;;;;;;17.57;75.02;101920.28;9031902;26;20455;-77
2024/04/13 08:33:52;;;;;;;5.10;3.20;;;;;;;17.74;74.15;101922.53;8999380;26;19999;-78
2024/04/13 08:37:53;;;;;;;10.40;4.30;;;;;;;18.08;74.17;101920.91;9032252;26;20339;-77
2024/04/13 08:42:09;;;;;;;4.63;2.85;;;;;;;18.45;71.11;101922.41;9027846;26;20003;-77
2024/04/13 08:46:11;;;;;;;6.00;3.13;;;;;;;18.35;69.40;101914.59;9012383;26;20011;-79
2024/04/13 08:50:14;;;;;;;6.13;3.03;;;;;;;18.44;69.03;101914.47;9012501;26;20398;-78
2024/04/13 08:54:16;;;;;;;4.00;2.83;;;;;;;18.40;68.08;101924.88;9049708;26;20403;-78
2024/04/13 08:58:19;;;;;;;3.90;2.45;;;;;;;18.42;67.40;101917.38;9033494;26;20025;-79
2024/04/13 09:02:25;;;;;;;6.65;2.75;;;;;;;18.79;64.55;101915.28;9033342;26;20014;-78
2024/04/13 09:06:27;;;;;;;8.23;2.58;;;;;;;19.01;64.34;101921.41;9029966;26;19999;-78
2024/04/13 09:10:30;;;;;;;5.95;2.50;;;;;;;18.99;63.07;101913.47;9032478;26;20022;-79
2024/04/13 09:14:33;;;;;;;4.45;2.47;;;;;;;18.92;62.87;101907.19;9033954;26;20331;-78
2024/04/13 09:18:35;;;;;;;6.07;2.78;;;;;;;19.26;61.33;101906.19;8999704;26;20003;-78
2024/04/13 09:22:39;;;;;;;4.70;2.05;;;;;;;18.90;63.61;101895.66;8976037;26;20003;-79
2024/04/13 09:26:42;;;;;;;12.35;6.40;;;;;;;19.43;63.11;101891.16;8973696;26;20455;-78
2024/04/13 09:30:46;;;;;;;4.13;2.40;;;;;;;19.51;61.78;101877.41;8976757;26;19999;-79
2024/04/13 09:34:48;;;;;;;5.43;2.45;;;;;;;19.84;62.86;101879.28;9022320;26;20311;-79
2024/04/13 09:38:50;;;;;;;2.92;1.70;;;;;;;19.43;60.84;101876.75;9030183;26;20023;-78
2024/04/13 09:42:52;;;;;;;5.80;2.25;;;;;;;19.98;59.65;101863.81;9030887;26;20003;-78
2024/04/13 09:46:58;;;;;;;3.35;2.35;;;;;;;20.25;58.08;101865.41;9031810;26;20010;-78
2024/04/13 09:51:00;;;;;;;4.15;2.17;;;;;;;20.65;59.54;101862.53;9032438;26;20003;-78
2024/04/13 09:55:02;;;;;;;5.80;1.80;;;;;;;20.54;56.39;101866.78;9032046;26;20039;-80
2024/04/13 09:59:09;;;;;;;4.28;1.90;;;;;;;20.44;55.96;101863.69;9035245;26;20467;-78
2024/04/13 10:03:11;;;;;;;5.32;1.77;;;;;;;20.29;54.91;101861.19;9037285;26;20455;-78
2024/04/13 10:07:14;;;;;;;3.92;1.70;;;;;;;21.22;54.19;101852.59;9005179;26;20306;-79
2024/04/13 10:11:18;;;;;;;4.70;1.67;;;;;;;21.40;53.14;101857.28;9035656;26;19999;-78
2024/04/13 10:15:20;;;;;;;7.28;1.70;;;;;;;21.47;53.14;101856.16;9030674;26;20007;-77
2024/04/13 10:19:22;;;;;;;8.20;2.03;;;;;;;21.28;52.94;101844.38;9034989;26;20017;-79
2024/04/13 10:23:24;;;;;;;4.10;1.65;;;;;;;20.37;54.04;101844.63;9037908;26;20031;-79
2024/04/13 10:27:32;;;;;;;4.20;1.73;;;;;;;20.94;51.98;101842.91;9040757;26;20004;-81
2024/04/13 10:31:34;;;;;;;3.08;1.38;;;;;;;20.41;52.96;101836.91;9046615;26;20003;-79
2024/04/13 10:35:36;;;;;;;4.75;1.42;;;;;;;20.63;52.02;101824.66;9004769;26;20011;-78
2024/04/13 10:39:37;;;;;;;4.35;1.48;;;;;;;20.86;51.37;101826.84;9033249;26;20035;-79
2024/04/13 10:43:39;;;;;;;2.55;1.50;;;;;;;20.91;52.88;101818.00;9005633;26;20002;-79
2024/04/13 10:47:41;;;;;;;5.38;3.70;;;;;;;21.71;49.29;101818.22;9037347;26;20003;-78
2024/04/13 10:51:45;;;;;;;2.15;1.60;;;;;;;21.40;50.74;101809.06;9036882;26;20017;-78
2024/04/13 10:55:50;;;;;;;6.97;2.55;;;;;;;21.60;49.58;101809.72;9004873;26;20423;-80
2024/04/13 10:59:52;;;;;;;11.38;2.45;;;;;;;21.98;49.08;101808.69;9008083;26;20005;-79
2024/04/13 11:04:06;;;;;;;3.47;2.00;;;;;;;22.02;49.78;101809.91;9031116;26;20015;-79
2024/04/13 11:08:09;;;;;;;3.97;1.90;;;;;;;22.12;49.20;101812.97;8951149;26;20010;-79
2024/04/13 11:12:12;;;;;;;4.78;2.50;;;;;;;21.88;48.52;101816.59;9005866;26;20030;-79
2024/04/13 11:16:14;;;;;;;4.65;2.00;;;;;;;22.17;49.74;101804.94;9040217;26;20362;-79
2024/04/13 11:20:16;;;;;;;5.75;2.00;;;;;;;21.67;50.81;101807.75;9006875;26;20023;-79
2024/04/13 11:24:18;;;;;;;7.43;2.28;;;;;;;21.84;48.47;101810.72;9039314;26;20039;-79
2024/04/13 11:28:20;;;;;;;15.00;2.67;;;;;;;22.27;48.86;101785.28;9038067;26;20052;-79
2024/04/13 11:32:21;;;;;;;2.05;1.45;;;;;;;22.08;48.78;101787.22;9039268;26;20013;-79
2024/04/13 11:36:23;;;;;;;4.80;2.40;;;;;;;23.22;48.46;101779.06;9036349;26;20003;-80
2024/04/13 11:40:33;;;;;;;3.00;1.80;;;;;;;22.89;49.76;101758.59;9023015;26;20080;-78
2024/04/13 11:44:41;;;;;;;2.72;1.55;;;;;;;22.62;46.07;101766.34;9040027;26;19999;-79
2024/04/13 11:48:42;;;;;;;2.23;1.43;;;;;;;22.71;46.15;101770.38;8976777;26;20011;-79
2024/04/13 11:52:44;;;;;;;6.15;1.25;;;;;;;23.69;43.74;101753.44;9008949;26;20003;-78
2024/04/13 11:56:46;;;;;;;2.63;1.10;;;;;;;22.98;43.49;101751.72;9038216;26;20030;-78
2024/04/13 12:00:52;;;;;;;3.92;1.08;;;;;;;23.80;41.35;101746.28;9003411;26;20017;-78
2024/04/13 12:04:54;;;;;;;4.15;1.10;;;;;;;24.49;40.28;101744.44;9004102;26;20075;-78
2024/04/13 12:08:55;;;;;;;5.43;1.20;;;;;;;24.12;41.40;101737.63;9034271;26;20003;-78
2024/04/13 12:12:57;;;;;;;2.35;1.30;;;;;;;23.10;43.34;101733.44;9028246;26;20084;-77
2024/04/13 12:17:00;;;;;;;2.35;1.38;;;;;;;23.01;39.46;101744.94;9001700;26;20007;-77
2024/04/13 12:21:01;;;;;;;4.72;0.85;;;;;;;22.16;42.28;101732.31;8979704;26;20364;-78
2024/04/13 12:25:03;;;;;;;3.47;1.20;;;;;;;23.28;41.40;101715.28;9031776;26;20011;-77
2024/04/13 12:29:05;;;;;;;3.22;1.23;;;;;;;23.68;41.12;101720.84;9030627;26;20003;-78
2024/04/13 12:33:07;;;;;;;2.78;1.25;;;;;;;23.72;40.18;101720.13;9029149;26;20002;-78
2024/04/13 12:37:08;;;;;;;2.45;0.95;;;;;;;23.08;40.18;101721.94;9027900;26;20003;-77
2024/04/13 12:41:13;;;;;;;3.80;0.93;;;;;;;22.71;41.94;101721.22;9027076;26;20018;-78
2024/04/13 12:45:15;;;;;;;3.63;1.50;;;;;;;23.73;42.14;101702.63;9021557;26;20010;-76
2024/04/13 12:49:16;;;;;;;3.83;1.08;;;;;;;23.00;40.83;101715.97;9027822;26;20018;-76
2024/04/13 12:53:19;;;;;;;2.75;1.00;;;;;;;22.87;40.34;101700.63;9027017;26;20324;-77
2024/04/13 12:57:22;;;;;;;5.65;1.23;;;;;;;22.35;38.08;101691.31;8995823;26;20007;-77
2024/04/13 13:01:24;;;;;;;1.67;1.10;;;;;;;23.07;38.65;101687.44;9028656;26;20347;-78
2024/04/13 13:05:26;;;;;;;2.40;1.30;;;;;;;23.09;39.37;101679.03;9027656;26;20560;-77
2024/04/13 13:09:28;;;;;;;1.73;1.35;;;;;;;23.65;40.07;101669.38;9026866;26;20011;-76
2024/04/13 13:13:30;;;;;;;3.42;1.30;;;;;;;24.05;39.90;101659.22;9026565;26;20006;-76
2024/04/13 13:17:32;;;;;;;2.78;1.00;;;;;;;22.97;41.23;101664.53;9026785;26;20365;-76
2024/04/13 13:21:36;;;;;;;1.42;1.17;;;;;;;23.14;40.98;101651.81;9026556;26;20007;-76
2024/04/13 13:25:38;;;;;;;2.78;1.25;;;;;;;23.13;42.50;101661.91;9027554;26;19999;-79
2024/04/13 13:29:40;;;;;;;5.63;1.55;;;;;;;23.29;42.10;101652.16;9026972;26;20007;-78
2024/04/13 13:33:42;;;;;;;4.05;1.30;;;;;;;24.24;40.26;101651.63;9026529;26;20365;-77
2024/04/13 13:37:43;;;;;;;2.33;1.67;;;;;;;24.42;39.77;101641.56;9025871;26;20007;-77
2024/04/13 13:41:45;;;;;;;4.50;1.50;;;;;;;23.49;39.47;101631.78;8994253;26;20003;-78
2024/04/13 13:45:47;;;;;;;2.58;1.10;;;;;;;24.54;38.12;101634.94;8979712;26;20007;-77
2024/04/13 13:49:48;;;;;;;2.08;1.33;;;;;;;24.38;37.58;101622.06;8966376;26;20003;-77
2024/04/13 13:53:54;;;;;;;2.95;1.40;;;;;;;24.68;37.89;101615.44;8979905;26;20003;-77
2024/04/13 13:57:56;;;;;;;6.57;1.55;;;;;;;24.62;38.05;101612.59;9026741;26;20003;-77
2024/04/13 14:01:58;;;;;;;1.60;1.20;;;;;;;23.94;38.17;101610.84;9029862;26;20079;-78
2024/04/13 14:06:04;;;;;;;3.33;1.20;;;;;;;22.92;37.83;101634.34;9030339;26;19999;-77
2024/04/13 14:10:06;;;;;;;2.20;1.17;;;;;;;22.95;38.76;101612.84;9020687;26;19999;-78
2024/04/13 14:14:07;;;;;;;4.32;1.00;;;;;;;22.67;39.43;101605.31;9027407;26;20359;-76
2024/04/13 14:18:09;;;;;;;2.55;1.17;;;;;;;22.69;39.99;101600.44;9025199;26;20071;-77
2024/04/13 14:22:11;;;;;;;2.25;0.90;;;;;;;22.55;39.94;101588.09;9024698;26;20003;-77
2024/04/13 14:26:12;;;;;;;3.22;1.38;;;;;;;22.68;41.53;101596.06;9024668;26;20126;-76
2024/04/13 14:30:14;;;;;;;1.80;0.90;;;;;;;22.56;41.03;101590.59;9024091;26;20003;-77
2024/04/13 14:34:16;;;;;;;4.45;1.70;;;;;;;22.63;41.53;101586.91;9005622;26;20035;-78
2024/04/13 14:38:19;;;;;;;2.78;1.58;;;;;;;23.11;41.83;101587.53;9023291;26;20003;-77
2024/04/13 14:42:21;;;;;;;3.28;1.30;;;;;;;22.67;42.52;101574.44;9026081;26;20451;-77
2024/04/13 14:46:23;;;;;;;3.25;1.23;;;;;;;22.79;42.83;101587.03;9030505;26;20500;-76
2024/04/13 14:50:27;;;;;;;2.80;1.38;;;;;;;22.83;43.80;101591.00;9034599;26;20470;-77
2024/04/13 14:54:29;;;;;;;2.50;1.35;;;;;;;22.34;44.73;101581.31;9000191;26;19998;-78
2024/04/13 14:58:31;;;;;;;5.55;1.55;;;;;;;22.12;45.35;101577.47;9000063;26;20003;-77
2024/04/13 15:02:32;;;;;;;2.53;1.20;;;;;;;22.72;44.81;101567.19;9032220;26;20002;-79
2024/04/13 15:06:36;;;;;;;2.78;1.40;;;;;;;22.34;45.94;101548.53;9003109;26;20003;-81
2024/04/13 15:10:47;;;;;;;6.07;1.58;;;;;;;22.36;46.83;101554.59;9033383;26;20147;-78
2024/04/13 15:14:51;;;;;;;1.95;1.48;;;;;;;21.94;46.67;101559.22;9003575;26;20031;-77
2024/04/13 15:18:53;;;;;;;1.90;1.23;;;;;;;21.91;47.43;101552.34;9033572;26;20091;-77
2024/04/13 15:22:55;;;;;;;4.75;1.70;;;;;;;21.85;48.20;101542.34;9029453;26;20003;-77
2024/04/13 15:26:57;;;;;;;1.88;1.48;;;;;;;21.86;48.36;101538.56;9000239;26;20454;-78
2024/04/13 15:30:59;;;;;;;1.95;1.15;;;;;;;21.86;47.67;101529.53;9031541;26;19999;-79
2024/04/13 15:35:01;;;;;;;4.28;1.55;;;;;;;22.03;48.47;101529.72;9030859;26;20015;-78
2024/04/13 15:39:05;;;;;;;3.63;1.75;;;;;;;22.09;48.05;101529.66;9024959;26;20018;-78
2024/04/13 15:43:06;;;;;;;2.70;1.95;;;;;;;22.40;47.71;101514.03;9030916;26;20536;-78
2024/04/13 15:47:08;;;;;;;1.83;1.30;;;;;;;22.23;47.65;101512.00;9036264;26;19999;-78
2024/04/13 15:51:10;;;;;;;3.72;1.50;;;;;;;22.32;48.05;101523.38;9036690;26;20022;-79
2024/04/13 15:55:12;;;;;;;3.33;1.77;;;;;;;21.78;49.65;101508.06;9032563;26;20076;-78
2024/04/13 15:59:14;;;;;;;4.22;1.50;;;;;;;21.92;50.50;101517.72;9033236;26;20014;-78
2024/04/13 16:03:15;;;;;;;2.10;1.20;;;;;;;21.65;49.73;101507.19;8972393;26;20039;-78
2024/04/13 16:07:17;;;;;;;2.85;1.45;;;;;;;21.70;49.86;101508.41;8972759;26;20003;-78
2024/04/13 16:11:19;;;;;;;4.78;2.00;;;;;;;21.96;48.90;101508.00;8942087;26;20004;-78
2024/04/13 16:15:21;;;;;;;3.22;1.60;;;;;;;21.90;48.42;101498.88;8992083;26;20018;-78
2024/04/13 16:19:23;;;;;;;7.07;3.80;;;;;;;21.77;49.00;101490.88;8942448;26;20012;-78
2024/04/13 16:23:24;;;;;;;3.25;1.60;;;;;;;21.70;49.03;101484.72;9008391;26;20015;-78
2024/04/13 16:27:26;;;;;;;4.93;1.90;;;;;;;21.81;49.44;101480.31;9032374;26;20369;-78
2024/04/13 16:31:28;;;;;;;3.22;1.60;;;;;;;21.90;49.61;101470.75;9000784;26;20007;-78
2024/04/13 16:35:30;;;;;;;3.55;1.80;;;;;;;21.92;49.36;101461.28;9030933;26;20331;-76
2024/04/13 16:39:31;;;;;;;4.50;1.95;;;;;;;22.23;48.20;101462.03;9029981;26;20021;-78
2024/04/13 16:43:33;;;;;;;5.05;1.70;;;;;;;22.51;48.72;101451.22;9032916;26;20003;-78
2024/04/13 16:47:38;;;;;;;1.98;1.40;;;;;;;21.82;50.81;101447.38;9032803;26;20350;-77
2024/04/13 16:51:41;;;;;;;3.50;1.60;;;;;;;22.33;50.24;101434.16;9032423;26;19999;-77
2024/04/13 16:55:43;;;;;;;3.95;1.67;;;;;;;22.88;48.87;101428.25;9031510;26;20045;-78
2024/04/13 16:59:50;;;;;;;4.57;1.88;;;;;;;22.81;50.06;101422.91;9030232;26;20003;-79
2024/04/13 17:03:53;;;;;;;7.28;1.73;;;;;;;22.14;50.55;101426.09;9042629;26;20072;-78
2024/04/13 17:07:55;;;;;;;2.90;1.50;;;;;;;21.75;51.81;101426.72;9011684;26;20060;-79
2024/04/13 17:11:57;;;;;;;3.50;1.60;;;;;;;21.54;52.40;101425.38;9038198;26;20075;-80
2024/04/13 17:15:58;;;;;;;2.75;1.73;;;;;;;21.43;53.29;101416.09;9035676;26;20039;-79
2024/04/13 17:20:00;;;;;;;2.60;1.52;;;;;;;21.22;53.86;101409.25;9032946;26;19999;-80
2024/04/13 17:24:02;;;;;;;3.33;1.80;;;;;;;20.86;54.80;101398.44;9033803;26;20015;-79
2024/04/13 17:28:04;;;;;;;3.05;1.90;;;;;;;20.74;55.12;101392.91;8979706;26;20009;-79
2024/04/13 17:32:07;;;;;;;3.10;1.80;;;;;;;20.44;56.79;101390.13;9032315;26;20040;-80
2024/04/13 17:36:09;;;;;;;3.05;1.65;;;;;;;20.58;56.02;101383.47;9034696;26;20455;-79
2024/04/13 17:40:11;;;;;;;15.27;10.60;;;;;;;20.47;56.66;101379.59;9036697;26;20010;-78
2024/04/13 17:44:13;;;;;;;3.70;1.92;;;;;;;19.97;57.46;101378.06;9043275;26;20023;-79
2024/04/13 17:48:14;;;;;;;6.25;1.67;;;;;;;20.03;57.46;101374.44;9043964;26;20003;-78
2024/04/13 17:52:16;;;;;;;4.60;2.13;;;;;;;20.51;56.40;101365.56;9011091;26;20007;-79
2024/04/13 17:56:18;;;;;;;3.17;1.50;;;;;;;20.22;56.96;101365.22;9036301;26;19998;-79
2024/04/13 18:00:20;;;;;;;6.57;2.20;;;;;;;20.16;58.52;101371.56;9035405;26;20007;-81
2024/04/13 18:04:22;;;;;;;3.90;1.90;;;;;;;20.04;57.76;101363.31;9033653;26;20014;-82
2024/04/13 18:08:25;;;;;;;2.60;1.95;;;;;;;19.50;60.02;101359.38;9033809;26;20076;-81
2024/04/13 18:12:26;;;;;;;3.03;1.90;;;;;;;19.51;60.68;101358.31;9004801;26;20468;-81
2024/04/13 18:16:30;;;;;;;4.30;1.80;;;;;;;19.73;61.71;101347.09;9004172;26;20002;-80
2024/04/13 18:20:31;;;;;;;4.65;1.95;;;;;;;19.51;61.90;101343.91;9008915;26;20003;-81
2024/04/13 18:24:33;;;;;;;8.73;2.38;;;;;;;19.54;61.84;101357.06;9040553;26;20014;-81
2024/04/13 18:28:35;;;;;;;13.70;7.05;;;;;;;19.43;63.37;101347.72;9007447;26;20015;-80
2024/04/13 18:32:36;;;;;;;11.88;3.80;;;;;;;19.06;64.85;101349.44;9039720;26;20014;-79
2024/04/13 18:36:39;;;;;;;4.30;2.70;;;;;;;19.23;63.84;101347.03;9037635;26;20003;-81